| time (UTC) | temp F | wind direction | speed MPH | gust MPH | rain 1hr in | rain 24hr in | rain mn in | humidity % | barometer mb |
| 20260505183506 | 82 | 322 | 2.0 | 9.0 | 0.00 | 0.00 | 0.00 | 42 | 1016.0 |
| 20260505183021 | 81 | 346 | 5.0 | 9.0 | 0.00 | 0.00 | 0.00 | 41 | 1016.0 |
| 20260505182508 | 81 | 360 | 2.0 | 10.0 | 0.00 | 0.00 | 0.00 | 39 | 1016.1 |
| 20260505181522 | 81 | 37 | 5.0 | 13.0 | 0.00 | 0.00 | 0.00 | 39 | 1016.3 |
| 20260505181008 | 80 | 333 | 6.0 | 14.0 | 0.00 | 0.00 | 0.00 | 39 | 1016.4 |
| 20260505180507 | 80 | 347 | 4.0 | 15.0 | 0.00 | 0.00 | 0.00 | 40 | 1016.4 |
| 20260505180037 | 80 | 338 | 5.0 | 15.0 | 0.00 | 0.00 | 0.00 | 41 | 1016.3 |
| 20260505175508 | 80 | 324 | 3.0 | 12.0 | 0.00 | 0.00 | 0.00 | 45 | 1016.3 |
| 20260505175005 | 80 | 313 | 4.0 | 12.0 | 0.00 | 0.00 | 0.00 | 40 | 1016.4 |
| 20260505174537 | 80 | 324 | 5.0 | 11.0 | 0.00 | 0.00 | 0.00 | 42 | 1016.3 |
| 20260505174005 | 80 | 315 | 5.0 | 10.0 | 0.00 | 0.00 | 0.00 | 42 | 1016.3 |
| 20260505173506 | 80 | 239 | 3.0 | 11.0 | 0.00 | 0.00 | 0.00 | 45 | 1016.4 |
| 20260505173016 | 79 | 15 | 2.0 | 11.0 | 0.00 | 0.00 | 0.00 | 44 | 1016.4 |
| 20260505172506 | 79 | 286 | 3.0 | 14.0 | 0.00 | 0.00 | 0.00 | 46 | 1016.4 |
| 20260505172003 | 79 | 348 | 7.0 | 14.0 | 0.00 | 0.00 | 0.00 | 45 | 1016.3 |
| 20260505171520 | 78 | 350 | 5.0 | 11.0 | 0.00 | 0.00 | 0.00 | 46 | 1016.4 |
| 20260505171008 | 78 | 347 | 2.0 | 10.0 | 0.00 | 0.00 | 0.00 | 49 | 1016.4 |
| 20260505170507 | 77 | 306 | 4.0 | 10.0 | 0.00 | 0.00 | 0.00 | 47 | 1016.4 |
| 20260505170027 | 77 | 312 | 0.0 | 8.0 | 0.00 | 0.00 | 0.00 | 48 | 1016.5 |
| 20260505165511 | 77 | 140 | 1.0 | 8.0 | 0.00 | 0.00 | 0.00 | 47 | 1016.4 |
| 20260505165007 | 77 | 167 | 3.0 | 13.0 | 0.00 | 0.00 | 0.00 | 47 | 1016.6 |
| 20260505164524 | 77 | 334 | 6.0 | 13.0 | 0.00 | 0.00 | 0.00 | 46 | 1016.7 |
| 20260505164010 | 77 | 350 | 3.0 | 11.0 | 0.00 | 0.00 | 0.00 | 50 | 1016.7 |
| 20260505163506 | 76 | 319 | 2.0 | 11.0 | 0.00 | 0.00 | 0.00 | 50 | 1016.6 |
| 20260505163009 | 76 | 232 | 1.0 | 8.0 | 0.00 | 0.00 | 0.00 | 52 | 1016.7 |
| 20260505162506 | 76 | 360 | 3.0 | 13.0 | 0.00 | 0.00 | 0.00 | 50 | 1016.8 |
| 20260505162007 | 75 | 230 | 5.0 | 13.0 | 0.00 | 0.00 | 0.00 | 50 | 1016.9 |
| 20260505161518 | 75 | 314 | 7.0 | 13.0 | 0.00 | 0.00 | 0.00 | 51 | 1017.0 |
| 20260505161008 | 75 | 267 | 6.0 | 12.0 | 0.00 | 0.00 | 0.00 | 51 | 1017.0 |
| 20260505153031 | 72 | 317 | 2.0 | 12.0 | 0.00 | 0.00 | 0.00 | 60 | 1017.5 |
| 20260505152508 | 72 | 11 | 2.0 | 12.0 | 0.00 | 0.00 | 0.00 | 59 | 1017.5 |
| 20260505152008 | 71 | 340 | 4.0 | 11.0 | 0.00 | 0.00 | 0.00 | 62 | 1017.6 |
| 20260505151513 | 71 | 276 | 2.0 | 10.0 | 0.00 | 0.00 | 0.00 | 61 | 1017.5 |
| 20260505151006 | 71 | 315 | 1.0 | 7.0 | 0.00 | 0.00 | 0.00 | 62 | 1017.6 |
| 20260505140510 | 68 | 128 | 2.0 | 9.0 | 0.00 | 0.00 | 0.00 | 68 | 1017.5 |
| 20260505125008 | 60 | 360 | 3.0 | 7.0 | 0.00 | 0.00 | 0.00 | 78 | 1017.6 |
| 20260505124522 | 59 | 360 | 1.0 | 4.0 | 0.00 | 0.00 | 0.00 | 80 | 1017.6 |
| 20260505124011 | 58 | 360 | 1.0 | 4.0 | 0.00 | 0.00 | 0.00 | 81 | 1017.5 |
| 20260505123508 | 57 | 239 | 0.0 | 4.0 | 0.00 | 0.00 | 0.00 | 83 | 1017.6 |
| 20260505123028 | 56 | 352 | 1.0 | 6.0 | 0.00 | 0.00 | 0.00 | 83 | 1017.6 |
| 20260505122509 | 56 | 22 | 2.0 | 6.0 | 0.00 | 0.00 | 0.00 | 85 | 1017.6 |
| 20260505122013 | 55 | 319 | 0.0 | 3.0 | 0.00 | 0.00 | 0.00 | 86 | 1017.6 |
| 20260505121523 | 55 | 360 | 0.0 | 2.0 | 0.00 | 0.00 | 0.00 | 87 | 1017.6 |
| 20260505120029 | 53 | 323 | 0.0 | 2.0 | 0.00 | 0.00 | 0.00 | 90 | 1017.6 |
| 20260505115509 | 52 | 323 | 0.0 | 1.0 | 0.00 | 0.00 | 0.00 | 90 | 1017.5 |
| 20260505115007 | 52 | 360 | 0.0 | 1.0 | 0.00 | 0.00 | 0.00 | 91 | 1017.4 |
| 20260505114526 | 52 | 360 | 0.0 | 2.0 | 0.00 | 0.00 | 0.00 | 91 | 1017.3 |
| 20260505114008 | 51 | 360 | 0.0 | 2.0 | 0.00 | 0.00 | 0.00 | 90 | 1017.3 |
| 20260505113504 | 51 | 360 | 0.0 | 1.0 | 0.00 | 0.00 | 0.00 | 91 | 1017.3 |
| 20260505113003 | 51 | 360 | 0.0 | 1.0 | 0.00 | 0.00 | 0.00 | 90 | 1017.2 |
| 20260505112507 | 50 | 360 | 0.0 | 0.0 | 0.00 | 0.00 | 0.00 | 91 | 1017.1 |
| 20260505112006 | 50 | 360 | 0.0 | 1.0 | 0.00 | 0.00 | 0.00 | 91 | 1017.1 |
| 20260505111507 | 50 | 360 | 0.0 | 1.0 | 0.00 | 0.00 | 0.00 | 90 | 1017.0 |
| 20260505111002 | 50 | 360 | 0.0 | 1.0 | 0.00 | 0.00 | 0.00 | 90 | 1017.0 |
| 20260505110503 | 50 | 360 | 0.0 | 0.0 | 0.00 | 0.00 | 0.00 | 90 | 1017.0 |
| 20260505102002 | 50 | 360 | 0.0 | 0.0 | 0.00 | 0.00 | 0.00 | 88 | 1016.5 |
| 20260505101508 | 50 | 360 | 0.0 | 0.0 | 0.00 | 0.00 | 0.00 | 88 | 1016.5 |
| 20260505101004 | 50 | 360 | 0.0 | 0.0 | 0.00 | 0.00 | 0.00 | 88 | 1016.4 |
| 20260505100503 | 51 | 360 | 0.0 | 0.0 | 0.00 | 0.00 | 0.00 | 87 | 1016.4 |
| 20260505100008 | 51 | 360 | 0.0 | 0.0 | 0.00 | 0.00 | 0.00 | 87 | 1016.4 |
| 20260505095503 | 51 | 360 | 0.0 | 0.0 | 0.00 | 0.00 | 0.00 | 86 | 1016.3 |
| 20260505095007 | 51 | 360 | 0.0 | 0.0 | 0.00 | 0.00 | 0.00 | 86 | 1016.2 |
| 20260505094508 | 51 | 360 | 0.0 | 0.0 | 0.00 | 0.00 | 0.00 | 85 | 1016.2 |
| 20260505094003 | 51 | 360 | 0.0 | 0.0 | 0.00 | 0.00 | 0.00 | 85 | 1016.2 |
| 20260505093512 | 51 | 360 | 0.0 | 0.0 | 0.00 | 0.00 | 0.00 | 85 | 1016.3 |
| 20260505093011 | 52 | 360 | 0.0 | 0.0 | 0.00 | 0.00 | 0.00 | 85 | 1016.2 |
| 20260505092503 | 52 | 360 | 0.0 | 1.0 | 0.00 | 0.00 | 0.00 | 84 | 1016.3 |
| 20260505092002 | 52 | 360 | 0.0 | 1.0 | 0.00 | 0.00 | 0.00 | 83 | 1016.2 |
| 20260505091505 | 52 | 360 | 0.0 | 0.0 | 0.00 | 0.00 | 0.00 | 83 | 1016.2 |
| 20260505091002 | 52 | 360 | 0.0 | 0.0 | 0.00 | 0.00 | 0.00 | 83 | 1016.2 |
| 20260505090503 | 53 | 360 | 0.0 | 0.0 | 0.00 | 0.00 | 0.00 | 82 | 1016.2 |
| 20260505090009 | 53 | 360 | 0.0 | 0.0 | 0.00 | 0.00 | 0.00 | 81 | 1016.2 |
| 20260505085504 | 53 | 360 | 0.0 | 0.0 | 0.00 | 0.00 | 0.00 | 81 | 1016.1 |
| 20260505085007 | 53 | 360 | 0.0 | 0.0 | 0.00 | 0.00 | 0.00 | 81 | 1016.1 |
| 20260505084516 | 54 | 360 | 0.0 | 0.0 | 0.00 | 0.00 | 0.00 | 80 | 1015.9 |
| 20260505084003 | 54 | 360 | 0.0 | 0.0 | 0.00 | 0.00 | 0.00 | 80 | 1015.9 |
| 20260505083503 | 54 | 360 | 0.0 | 0.0 | 0.00 | 0.00 | 0.00 | 79 | 1015.9 |
| 20260505083014 | 55 | 360 | 0.0 | 0.0 | 0.00 | 0.00 | 0.00 | 78 | 1015.8 |
| 20260505082009 | 55 | 360 | 0.0 | 0.0 | 0.00 | 0.00 | 0.00 | 77 | 1015.8 |
| 20260505081006 | 56 | 360 | 0.0 | 0.0 | 0.00 | 0.00 | 0.00 | 76 | 1015.8 |
| 20260505075503 | 56 | 360 | 0.0 | 2.0 | 0.00 | 0.00 | 0.00 | 74 | 1015.7 |
| 20260505075003 | 56 | 360 | 0.0 | 3.0 | 0.00 | 0.00 | 0.00 | 74 | 1015.6 |
| 20260505074004 | 57 | 360 | 0.0 | 2.0 | 0.00 | 0.00 | 0.00 | 73 | 1015.6 |
| 20260505073504 | 57 | 360 | 0.0 | 3.0 | 0.00 | 0.00 | 0.00 | 73 | 1015.5 |
| 20260505073012 | 57 | 360 | 1.0 | 3.0 | 0.00 | 0.00 | 0.00 | 73 | 1015.5 |
| 20260505072505 | 57 | 360 | 1.0 | 3.0 | 0.00 | 0.00 | 0.00 | 73 | 1015.5 |
| 20260505072010 | 57 | 360 | 1.0 | 3.0 | 0.00 | 0.00 | 0.00 | 73 | 1015.6 |
| 20260505071507 | 57 | 360 | 1.0 | 2.0 | 0.00 | 0.00 | 0.00 | 72 | 1015.5 |
| 20260505071011 | 58 | 360 | 0.0 | 2.0 | 0.00 | 0.00 | 0.00 | 71 | 1015.4 |
| 20260505070510 | 58 | 360 | 0.0 | 3.0 | 0.00 | 0.00 | 0.00 | 71 | 1015.3 |
| 20260505065004 | 58 | 360 | 1.0 | 4.0 | 0.00 | 0.00 | 0.00 | 70 | 1015.3 |
| 20260505064509 | 59 | 360 | 1.0 | 4.0 | 0.00 | 0.00 | 0.00 | 70 | 1015.3 |
| 20260505064004 | 59 | 360 | 1.0 | 4.0 | 0.00 | 0.00 | 0.00 | 70 | 1015.3 |
| 20260505063504 | 59 | 360 | 1.0 | 4.0 | 0.00 | 0.00 | 0.00 | 70 | 1015.3 |
| 20260505063010 | 59 | 360 | 2.0 | 4.0 | 0.00 | 0.00 | 0.00 | 69 | 1015.3 |
| 20260505062504 | 59 | 360 | 1.0 | 5.0 | 0.00 | 0.00 | 0.00 | 69 | 1015.3 |
| 20260505062007 | 59 | 360 | 2.0 | 5.0 | 0.00 | 0.00 | 0.00 | 69 | 1015.3 |
| 20260505061508 | 60 | 360 | 1.0 | 4.0 | 0.00 | 0.00 | 0.00 | 68 | 1015.3 |
| 20260505061009 | 60 | 360 | 1.0 | 4.0 | 0.00 | 0.00 | 0.00 | 68 | 1015.3 |
| 20260505060506 | 60 | 360 | 1.0 | 4.0 | 0.00 | 0.00 | 0.00 | 68 | 1015.4 |
| 20260505060007 | 60 | 360 | 1.0 | 4.0 | 0.00 | 0.00 | 0.00 | 68 | 1015.3 |
| 20260505055512 | 60 | 360 | 1.0 | 5.0 | 0.00 | 0.00 | 0.00 | 68 | 1015.4 |
| 20260505055003 | 60 | 360 | 1.0 | 5.0 | 0.00 | 0.00 | 0.00 | 68 | 1015.4 |
| 20260505054003 | 60 | 360 | 1.0 | 6.0 | 0.00 | 0.00 | 0.00 | 67 | 1015.5 |
| 20260505052505 | 61 | 360 | 3.0 | 6.0 | 0.00 | 0.00 | 0.00 | 67 | 1015.6 |
| 20260505052008 | 61 | 360 | 1.0 | 5.0 | 0.00 | 0.00 | 0.00 | 67 | 1015.7 |
| 20260505051512 | 61 | 360 | 2.0 | 4.0 | 0.00 | 0.00 | 0.00 | 67 | 1015.7 |
| 20260505051009 | 61 | 360 | 2.0 | 4.0 | 0.00 | 0.00 | 0.00 | 67 | 1015.8 |
| 20260505050511 | 61 | 360 | 1.0 | 4.0 | 0.00 | 0.00 | 0.00 | 67 | 1015.8 |
| 20260505041508 | 62 | 360 | 2.0 | 6.0 | 0.00 | 0.00 | 0.00 | 65 | 1015.7 |
| 20260505041004 | 62 | 360 | 2.0 | 8.0 | 0.00 | 0.00 | 0.00 | 65 | 1015.8 |
| 20260505040508 | 62 | 360 | 3.0 | 9.0 | 0.00 | 0.00 | 0.00 | 65 | 1015.8 |
| 20260505040012 | 63 | 360 | 1.0 | 9.0 | 0.00 | 0.00 | 0.00 | 65 | 1015.9 |
| 20260505035507 | 63 | 360 | 3.0 | 8.0 | 0.00 | 0.00 | 0.00 | 64 | 1015.9 |
| 20260505035006 | 63 | 360 | 3.0 | 8.0 | 0.00 | 0.00 | 0.00 | 64 | 1015.8 |
| 20260505034507 | 63 | 360 | 2.0 | 6.0 | 0.00 | 0.00 | 0.00 | 64 | 1015.9 |
| 20260505034012 | 63 | 360 | 2.0 | 9.0 | 0.00 | 0.00 | 0.00 | 64 | 1015.8 |
| 20260505033508 | 63 | 360 | 3.0 | 9.0 | 0.00 | 0.00 | 0.00 | 64 | 1015.8 |
| 20260505032503 | 64 | 360 | 4.0 | 11.0 | 0.00 | 0.00 | 0.00 | 63 | 1015.7 |
| 20260505032004 | 64 | 360 | 4.0 | 11.0 | 0.00 | 0.00 | 0.00 | 63 | 1015.8 |
| 20260505031003 | 64 | 360 | 3.0 | 9.0 | 0.00 | 0.00 | 0.00 | 62 | 1015.8 |
| 20260505030506 | 64 | 360 | 3.0 | 8.0 | 0.00 | 0.00 | 0.00 | 62 | 1015.8 |
| 20260505030010 | 65 | 360 | 3.0 | 11.0 | 0.00 | 0.00 | 0.00 | 62 | 1015.9 |
| 20260505025508 | 65 | 360 | 3.0 | 11.0 | 0.00 | 0.00 | 0.00 | 62 | 1015.8 |
| 20260505025008 | 65 | 360 | 3.0 | 10.0 | 0.00 | 0.00 | 0.00 | 61 | 1015.8 |
| 20260505024524 | 65 | 360 | 3.0 | 10.0 | 0.00 | 0.00 | 0.00 | 61 | 1015.8 |
| 20260505023504 | 66 | 360 | 4.0 | 10.0 | 0.00 | 0.00 | 0.00 | 61 | 1015.6 |
| 20260505023009 | 66 | 360 | 3.0 | 14.0 | 0.00 | 0.00 | 0.00 | 60 | 1015.6 |
| 20260505022512 | 66 | 360 | 5.0 | 14.0 | 0.00 | 0.00 | 0.00 | 60 | 1015.6 |
| 20260505022006 | 66 | 360 | 5.0 | 12.0 | 0.00 | 0.00 | 0.00 | 60 | 1015.5 |
| 20260505021530 | 66 | 360 | 4.0 | 12.0 | 0.00 | 0.00 | 0.00 | 60 | 1015.6 |
| 20260505021004 | 66 | 360 | 5.0 | 12.0 | 0.00 | 0.00 | 0.00 | 60 | 1015.6 |
| 20260505020503 | 67 | 360 | 5.0 | 11.0 | 0.00 | 0.00 | 0.00 | 60 | 1015.6 |
| 20260505020014 | 67 | 360 | 5.0 | 12.0 | 0.00 | 0.00 | 0.00 | 59 | 1015.5 |
| 20260505015506 | 67 | 360 | 5.0 | 12.0 | 0.00 | 0.00 | 0.00 | 59 | 1015.5 |
| 20260505015010 | 67 | 360 | 3.0 | 11.0 | 0.00 | 0.00 | 0.00 | 59 | 1015.5 |
| 20260505014519 | 67 | 360 | 3.0 | 9.0 | 0.00 | 0.00 | 0.00 | 58 | 1015.4 |
| 20260505014009 | 68 | 360 | 2.0 | 13.0 | 0.00 | 0.00 | 0.00 | 57 | 1015.4 |
| 20260505013512 | 68 | 360 | 3.0 | 13.0 | 0.00 | 0.00 | 0.00 | 56 | 1015.3 |
| 20260505012509 | 68 | 360 | 3.0 | 12.0 | 0.00 | 0.00 | 0.00 | 53 | 1015.1 |
| 20260505012007 | 68 | 360 | 4.0 | 16.0 | 0.00 | 0.00 | 0.00 | 51 | 1015.0 |
| 20260505011526 | 68 | 360 | 6.0 | 16.0 | 0.00 | 0.00 | 0.00 | 50 | 1014.9 |
| 20260505011006 | 68 | 360 | 5.0 | 9.0 | 0.00 | 0.00 | 0.00 | 48 | 1014.7 |
| 20260505010506 | 68 | 360 | 3.0 | 6.0 | 0.00 | 0.00 | 0.00 | 47 | 1014.7 |
| 20260505010009 | 68 | 360 | 2.0 | 3.0 | 0.00 | 0.00 | 0.00 | 46 | 1014.5 |
| 20260505005504 | 69 | 360 | 1.0 | 3.0 | 0.00 | 0.00 | 0.00 | 46 | 1014.5 |
| 20260505005007 | 69 | 360 | 1.0 | 3.0 | 0.00 | 0.00 | 0.00 | 46 | 1014.4 |
| 20260505004521 | 69 | 360 | 1.0 | 3.0 | 0.00 | 0.00 | 0.00 | 45 | 1014.3 |
| 20260505004009 | 70 | 360 | 1.0 | 4.0 | 0.00 | 0.00 | 0.00 | 45 | 1014.3 |
| 20260505003511 | 70 | 360 | 1.0 | 5.0 | 0.00 | 0.00 | 0.00 | 44 | 1014.3 |
| 20260505002513 | 70 | 360 | 1.0 | 4.0 | 0.00 | 0.00 | 0.00 | 44 | 1014.2 |
| 20260505002008 | 71 | 360 | 2.0 | 4.0 | 0.00 | 0.00 | 0.00 | 43 | 1014.1 |
| 20260505001524 | 71 | 360 | 1.0 | 4.0 | 0.00 | 0.00 | 0.00 | 43 | 1014.1 |
| 20260505001012 | 71 | 360 | 1.0 | 4.0 | 0.00 | 0.00 | 0.00 | 42 | 1014.1 |
| 20260505000506 | 72 | 360 | 2.0 | 3.0 | 0.00 | 0.00 | 0.00 | 43 | 1014.1 |
| 20260505000032 | 72 | 360 | 1.0 | 4.0 | 0.00 | 0.00 | 0.00 | 41 | 1014.1 |
| 20260504235510 | 73 | 360 | 1.0 | 5.0 | 0.00 | 0.00 | 0.00 | 41 | 1014.0 |
| 20260504235004 | 73 | 360 | 2.0 | 5.0 | 0.00 | 0.00 | 0.00 | 40 | 1014.0 |
| 20260504234515 | 73 | 360 | 1.0 | 4.0 | 0.00 | 0.00 | 0.00 | 39 | 1014.0 |
| 20260504234004 | 74 | 360 | 1.0 | 5.0 | 0.00 | 0.00 | 0.00 | 39 | 1013.8 |
| 20260504233506 | 74 | 360 | 1.0 | 5.0 | 0.00 | 0.00 | 0.00 | 40 | 1013.7 |
| 20260504233024 | 74 | 360 | 2.0 | 5.0 | 0.00 | 0.00 | 0.00 | 38 | 1013.7 |
| 20260504232507 | 74 | 360 | 2.0 | 6.0 | 0.00 | 0.00 | 0.00 | 37 | 1013.7 |
| 20260504232007 | 75 | 360 | 2.0 | 8.0 | 0.00 | 0.00 | 0.00 | 37 | 1013.7 |
| 20260504231528 | 75 | 344 | 2.0 | 12.0 | 0.00 | 0.00 | 0.00 | 36 | 1013.6 |
| 20260504231014 | 75 | 306 | 3.0 | 12.0 | 0.00 | 0.00 | 0.00 | 36 | 1013.6 |
| 20260504230506 | 75 | 302 | 4.0 | 10.0 | 0.00 | 0.00 | 0.00 | 35 | 1013.6 |
| 20260504230024 | 76 | 337 | 2.0 | 8.0 | 0.00 | 0.00 | 0.00 | 35 | 1013.6 |
| 20260504225508 | 76 | 360 | 3.0 | 11.0 | 0.00 | 0.00 | 0.00 | 35 | 1013.5 |
| 20260504225007 | 76 | 360 | 3.0 | 11.0 | 0.00 | 0.00 | 0.00 | 35 | 1013.5 |
| 20260504224535 | 76 | 360 | 6.0 | 11.0 | 0.00 | 0.00 | 0.00 | 34 | 1013.6 |
| 20260504224009 | 77 | 360 | 2.0 | 9.0 | 0.00 | 0.00 | 0.00 | 35 | 1013.5 |
| 20260504223504 | 77 | 360 | 2.0 | 9.0 | 0.00 | 0.00 | 0.00 | 34 | 1013.6 |
| 20260504223018 | 78 | 360 | 4.0 | 10.0 | 0.00 | 0.00 | 0.00 | 33 | 1013.5 |
| 20260504222508 | 78 | 360 | 4.0 | 10.0 | 0.00 | 0.00 | 0.00 | 34 | 1013.5 |
| 20260504222006 | 78 | 55 | 1.0 | 8.0 | 0.00 | 0.00 | 0.00 | 34 | 1013.5 |
| 20260504221523 | 79 | 360 | 3.0 | 8.0 | 0.00 | 0.00 | 0.00 | 33 | 1013.5 |
| 20260504221008 | 79 | 348 | 1.0 | 14.0 | 0.00 | 0.00 | 0.00 | 33 | 1013.5 |
| 20260504220508 | 79 | 58 | 7.0 | 14.0 | 0.00 | 0.00 | 0.00 | 31 | 1013.5 |
| 20260504220025 | 80 | 333 | 3.0 | 7.0 | 0.00 | 0.00 | 0.00 | 31 | 1013.5 |
| 20260504215509 | 81 | 315 | 2.0 | 11.0 | 0.00 | 0.00 | 0.00 | 30 | 1013.5 |
| 20260504215006 | 81 | 36 | 4.0 | 11.0 | 0.00 | 0.00 | 0.00 | 29 | 1013.4 |
| 20260504214526 | 81 | 332 | 6.0 | 11.0 | 0.00 | 0.00 | 0.00 | 29 | 1013.4 |
| 20260504214011 | 81 | 9 | 3.0 | 6.0 | 0.00 | 0.00 | 0.00 | 29 | 1013.4 |
| 20260504213028 | 81 | 34 | 0.0 | 6.0 | 0.00 | 0.00 | 0.00 | 30 | 1013.5 |
| 20260504212506 | 81 | 67 | 1.0 | 11.0 | 0.00 | 0.00 | 0.00 | 31 | 1013.5 |
| 20260504212006 | 81 | 207 | 1.0 | 11.0 | 0.00 | 0.00 | 0.00 | 28 | 1013.5 |
| 20260504210507 | 81 | 14 | 3.0 | 9.0 | 0.00 | 0.00 | 0.00 | 29 | 1013.5 |
| 20260504205507 | 82 | 323 | 6.0 | 10.0 | 0.00 | 0.00 | 0.00 | 27 | 1013.6 |
| 20260504205010 | 82 | 308 | 3.0 | 9.0 | 0.00 | 0.00 | 0.00 | 29 | 1013.6 |
| 20260504204525 | 82 | 94 | 2.0 | 9.0 | 0.00 | 0.00 | 0.00 | 26 | 1013.7 |
| 20260504204008 | 82 | 5 | 2.0 | 11.0 | 0.00 | 0.00 | 0.00 | 27 | 1013.8 |
| 20260504203509 | 82 | 350 | 6.0 | 11.0 | 0.00 | 0.00 | 0.00 | 26 | 1013.8 |
| 20260504203032 | 82 | 326 | 5.0 | 10.0 | 0.00 | 0.00 | 0.00 | 26 | 1013.9 |
| 20260504202513 | 82 | 143 | 2.0 | 4.0 | 0.00 | 0.00 | 0.00 | 26 | 1013.9 |
| 20260504202007 | 82 | 130 | 0.0 | 6.0 | 0.00 | 0.00 | 0.00 | 27 | 1013.9 |
| 20260504201519 | 82 | 233 | 1.0 | 6.0 | 0.00 | 0.00 | 0.00 | 25 | 1014.0 |
| 20260504201007 | 82 | 159 | 2.0 | 8.0 | 0.00 | 0.00 | 0.00 | 29 | 1014.0 |
| 20260504200509 | 82 | 172 | 2.0 | 8.0 | 0.00 | 0.00 | 0.00 | 24 | 1014.1 |
| 20260504195510 | 81 | 311 | 2.0 | 7.0 | 0.00 | 0.00 | 0.00 | 27 | 1014.1 |
| 20260504195005 | 81 | 120 | 2.0 | 8.0 | 0.00 | 0.00 | 0.00 | 27 | 1014.1 |
| 20260504194011 | 81 | 360 | 2.0 | 8.0 | 0.00 | 0.00 | 0.00 | 27 | 1014.0 |
| 20260504193510 | 82 | 13 | 3.0 | 12.0 | 0.00 | 0.00 | 0.00 | 27 | 1014.0 |
| 20260504193026 | 82 | 305 | 0.0 | 12.0 | 0.00 | 0.00 | 0.00 | 28 | 1014.0 |
| 20260504192507 | 81 | 315 | 3.0 | 8.0 | 0.00 | 0.00 | 0.00 | 29 | 1014.1 |
| 20260504192012 | 81 | 336 | 3.0 | 9.0 | 0.00 | 0.00 | 0.00 | 27 | 1014.2 |
| 20260504191529 | 80 | 9 | 2.0 | 11.0 | 0.00 | 0.00 | 0.00 | 29 | 1014.4 |
| 20260504191007 | 80 | 278 | 5.0 | 11.0 | 0.00 | 0.00 | 0.00 | 29 | 1014.5 |
| 20260504190507 | 80 | 151 | 2.0 | 9.0 | 0.00 | 0.00 | 0.00 | 28 | 1014.5 |
| 20260504185007 | 80 | 360 | 3.0 | 9.0 | 0.00 | 0.00 | 0.00 | 31 | 1014.8 |